Latest METARs, TAFs and NOTAMs for EGWU


---------------------------------------------------------------------------
	(OBSERVATIONS)
EGWU 260150Z AUTO 04006KT 3800 // BKN006/// 15/14 Q1019=
EGWU 260120Z NIL=
EGWU 260050Z AUTO 05005KT 4700 // SCT130/// SCT200/// 15/14 Q1019=
EGWU 260020Z NIL=
EGWU 252350Z NIL=
---------------------------------------------------------------------------
	(FC)
Sorry, FC For EGWU Not Found
---------------------------------------------------------------------------
	(TERMINAL AREA FORECAST)
EGWU 260200Z NIL=
---------------------------------------------------------------------------
	(NOTAMS)


EGWU H2893/18 FIREWORK DISPLAY WI 0.5NM RADIUS 513236N 0002609W
    (HILLINGDON, LONDON). FOR INFO 07802 881535. 2018-06-0175/AS2.
    SFC - 1000FT AMSL, 09 JUN 21:00 2018 UNTIL 09 JUN 22:15 2018.
    CREATED: 22 MAY 10:10 2018

EGWU H2896/18 FIREWORK DISPLAY WI 0.5NM RADIUS 513332N 0002604W
    (ICKENHAM, MIDDLESEX). FOR INFO 07802 881535. 2018-06-0192/AS2.
    SFC - 1000FT AMSL, 16 JUN 21:00 2018 UNTIL 16 JUN 22:15 2018.
    CREATED: 22 MAY 10:11 2018

EGWU U1195/18 CRANES PSN 513229N 0002814W (UXBRIDGE) PENETRATE
    THE INNER HORIZONTAL SURFACE AND THE RWY 07 APPROACH AND
    RWY 25 TAKE-OFF CLIMB SURFACES. VMC (A) 630 (510) TO 660
    (540) LNAV 07 580 (470) TO 610 (500) PAR 07 MINIMA INCREASED
    AS FOLLOWS: CAT A 470 (350) TO 500 (380) CAT B 480 (360)
    TO 510 (390) CAT C 490 (370) TO 520 (400) CAT D 500 (380)
    TO 530 (410. 15 MAR 09:01 2018 UNTIL 15 JUN 20:00 2018. CREATED:
    15 MAR 09:59 2018

EGWU U1715/18 3 CRANES OPR AT PSN 513229N 0002814W (UXBRIDGE).
    MAX HEIGHT 207FT AGL, 362FT AMSL. MON-FRI 0800-1800, SAT
    0800-1300, 11 APR 10:34 2018 UNTIL 15 JUN 18:00 2018. CREATED:
    11 APR 10:36 2018

EGWU U2015/18 AD CLSD TO CIVIL ACFT, MIL VIA PPR ONLY, ATS CAT
    A AND B EXEMPT. SAT 0700-1400, SUN 1100-1800, MON 0700-1900,
    TUE-FRI 1600-1900, 28 MAY 07:00 2018 UNTIL 03 JUN 18:00 2018.
    CREATED: 03 MAY 23:05 2018

EGWU U2016/18 AD CLSD TO CIVIL ACFT, MIL VIA PPR ONLY, ATS CAT
    A AND B EXEMPT. SAT 0700-1400, SUN 1100-1800, MON-FRI 1600-1900,
    14 MAY 07:00 2018 UNTIL 27 MAY 18:00 2018. CREATED: 03 MAY
    23:06 2018

EGWU U2201/18 AD CLSD TO CIVIL ACFT, MIL VIA PPR ONLY, ATS CAT
    A AND B FLIGHTS EXEMPT. SAT 0700-1400, SUN 1100-1800, MON-FRI
    1600-1900, 04 JUN 16:00 2018 UNTIL 10 JUN 18:00 2018. CREATED:
    18 MAY 12:30 2018

EGWU U2202/18 AD CLSD TO CIVIL ACFT, MIL VIA PPR ONLY, ATS CAT
    A AND B FLIGHTS EXEMPT. SAT 0700-1400, SUN 1100-1800, MON-FRI
    1600-1900, 11 JUN 16:00 2018 UNTIL 17 JUN 18:00 2018. CREATED:
    18 MAY 12:33 2018

EGWU U3826/16 ALL USERS OF RAF NORTHOLT MUST COMPLY WITH THE
    DEFENCE AERODROME MANUAL. 18 NOV 06:00 2016 UNTIL PERM. CREATED:
    18 NOV 06:07 2016

---------------------------------------------------------------------------